Capricho — WD12405 — position and weather

sailwx.info

Track history (hours):
 
Tides and Currents Weather Stations Pressure Air Temp Water Temp Dewpoint Dewpoint Depression Visibility Wind Speed Wind Dir Waves Ship Positions

Capricho

Last reported at 2017-Sep-17 16:13 UTC. Time now 2017-Sep-20 22:07 UTC.
Position N 42°16' W 070°40'.

Length 24 m.

Type: Pleasure craft. MMSI: 367677830.

Date/timePositionNaut miles runAvg speedWind from/ knotsBaromVisibWave heightAir tempDewpointWater temp
2017-Sep-17 16:13N 42°16' W 070°40'7 9.1
2017-Sep-17 15:29N 42°19' W 070°48'4 8.0
2017-Sep-17 15:00N 42°19' W 070°53'3 6.0
2017-Sep-17 14:30N 42°20' W 070°57'4 7.5
2017-Sep-17 13:58N 42°21' W 071°02'0 0.7
2017-Sep-17 13:23N 42°22' W 071°03'0 0.0
2017-Sep-17 12:59N 42°22' W 071°03'0 0.0
2017-Sep-17 12:29N 42°22' W 071°03'0 0.0
2017-Sep-17 11:59N 42°22' W 071°03'0 0.0
2017-Sep-17 11:23N 42°22' W 071°03'0 0.0
2017-Sep-17 10:59N 42°22' W 071°03'0 0.0
2017-Sep-17 10:29N 42°22' W 071°03'0 0.0
2017-Sep-17 09:59N 42°22' W 071°03'0 0.0
2017-Sep-17 09:29N 42°22' W 071°03'0 0.0
2017-Sep-17 08:59N 42°22' W 071°03'0 0.0
2017-Sep-17 08:29N 42°22' W 071°03'0 0.0
2017-Sep-17 04:59N 42°22' W 071°03'0 0.0
2017-Sep-17 04:29N 42°22' W 071°03'0 0.0
2017-Sep-17 03:59N 42°22' W 071°03'0 0.0
2017-Sep-17 03:29N 42°22' W 071°03'0 0.0
2017-Sep-17 02:59N 42°22' W 071°03'0 0.0
2017-Sep-17 02:29N 42°22' W 071°03'0 0.0
2017-Sep-17 01:59N 42°22' W 071°03'0 0.0
2017-Sep-17 01:29N 42°22' W 071°03'0 0.0
2017-Sep-17 00:59N 42°22' W 071°03'0 0.0
2017-Sep-17 00:23N 42°22' W 071°03'0 0.0
2017-Sep-16 23:59N 42°22' W 071°03'0 0.0
2017-Sep-16 23:29N 42°22' W 071°03'0 0.0
2017-Sep-16 22:59N 42°22' W 071°03'0 0.0
2017-Sep-16 22:17N 42°22' W 071°03'0 0.0
2017-Sep-16 21:59N 42°22' W 071°03'0 0.0
2017-Sep-16 21:08N 42°22' W 071°03'0 0.0
2017-Sep-16 20:35N 42°22' W 071°03'0 0.0
2017-Sep-16 20:29N 42°22' W 071°03'0 0.0
2017-Sep-16 19:59N 42°22' W 071°03'0 0.0
2017-Sep-16 19:29N 42°22' W 071°03'0 0.0
2017-Sep-16 18:05N 42°22' W 071°03'0 0.0
2017-Sep-16 17:47N 42°22' W 071°03'0 0.0
2017-Sep-16 16:35N 42°22' W 071°03'0 0.0
2017-Sep-16 16:29N 42°22' W 071°03'0 0.0
2017-Sep-16 15:59N 42°22' W 071°03'0 0.0
2017-Sep-16 15:29N 42°22' W 071°03'0 0.0
2017-Sep-16 14:53N 42°22' W 071°03'0 0.0
2017-Sep-16 14:23N 42°22' W 071°03'0 0.0
2017-Sep-16 13:53N 42°22' W 071°03'0 0.0
2017-Sep-16 13:29N 42°22' W 071°03'0 0.0
2017-Sep-16 12:59N 42°22' W 071°03'0 0.0
2017-Sep-16 12:29N 42°22' W 071°03'0 0.0
2017-Sep-16 11:59N 42°22' W 071°03'0 0.0
2017-Sep-16 11:29N 42°22' W 071°03'0 0.0
2017-Sep-16 10:47N 42°22' W 071°03'0 0.0
2017-Sep-16 10:29N 42°22' W 071°03'0 0.0
2017-Sep-16 09:59N 42°22' W 071°03'0 0.0
2017-Sep-16 09:29N 42°22' W 071°03'0 0.0
2017-Sep-16 08:41N 42°22' W 071°03'0 0.0
2017-Sep-16 08:17N 42°22' W 071°03'0 0.0
2017-Sep-16 07:53N 42°22' W 071°03'0 0.0
2017-Sep-16 07:17N 42°22' W 071°03'0 0.0
2017-Sep-16 06:53N 42°22' W 071°03'0 0.0
2017-Sep-16 06:23N 42°22' W 071°03'0 0.0
2017-Sep-16 05:59N 42°22' W 071°03'0 0.0
2017-Sep-16 04:41N 42°22' W 071°03'0 0.0
2017-Sep-16 03:47N 42°22' W 071°03'0 0.0
2017-Sep-16 03:29N 42°22' W 071°03'0 0.0
2017-Sep-16 02:59N 42°22' W 071°03'0 0.0
2017-Sep-16 02:23N 42°22' W 071°03'0 0.0
2017-Sep-16 01:53N 42°22' W 071°03'0 0.0
2017-Sep-16 01:29N 42°22' W 071°03'0 0.0
2017-Sep-16 00:59N 42°22' W 071°03'0 0.0
2017-Sep-16 00:23N 42°22' W 071°03'0 0.0
2017-Sep-15 23:59N 42°22' W 071°03'0 0.0
2017-Sep-15 23:23N 42°22' W 071°03'0 0.0
2017-Sep-15 22:56N 42°22' W 071°03'0 0.0
2017-Sep-15 22:29N 42°22' W 071°03'0 0.0
2017-Sep-15 21:53N 42°22' W 071°03'0 0.0
2017-Sep-15 21:29N 42°22' W 071°03'0 0.0
2017-Sep-15 20:59N 42°22' W 071°03'0 0.0
2017-Sep-15 20:17N 42°22' W 071°03'0 0.0
2017-Sep-15 19:53N 42°22' W 071°03'0 0.0
2017-Sep-15 19:23N 42°22' W 071°03'0 0.0
2017-Sep-15 18:47N 42°22' W 071°03'0 0.0
2017-Sep-15 16:17N 42°22' W 071°03'0 0.0
2017-Sep-15 15:11N 42°22' W 071°03'0 0.0
2017-Sep-15 14:59N 42°22' W 071°03'0 0.0
2017-Sep-15 14:23N 42°22' W 071°03'0 0.0
2017-Sep-15 13:53N 42°22' W 071°03'0 0.0
2017-Sep-15 13:29N 42°22' W 071°03'0 0.0
2017-Sep-15 12:59N 42°22' W 071°03'0 0.0
2017-Sep-15 12:29N 42°22' W 071°03'0 0.0
2017-Sep-15 11:59N 42°22' W 071°03'0 0.0
2017-Sep-15 09:53N 42°22' W 071°03'0 0.0
2017-Sep-15 09:17N 42°22' W 071°03'0 0.0
2017-Sep-15 08:53N 42°22' W 071°03'0 0.0
2017-Sep-15 08:17N 42°22' W 071°03'0 0.0
2017-Sep-15 03:41N 42°22' W 071°03'0 0.0
2017-Sep-15 01:53N 42°22' W 071°03'0 0.0
2017-Sep-15 01:23N 42°22' W 071°03'0 0.0
2017-Sep-15 00:59N 42°22' W 071°03'0 0.0
2017-Sep-15 00:29N 42°22' W 071°03'0 0.0
2017-Sep-14 23:53N 42°22' W 071°03'0 0.0
2017-Sep-14 23:29N 42°22' W 071°03'0 0.0
2017-Sep-14 22:59N 42°22' W 071°03'0 0.0
2017-Sep-14 22:29N 42°22' W 071°03'0 0.0
2017-Sep-14 21:53N 42°22' W 071°03'0 0.0
2017-Sep-14 21:29N 42°22' W 071°03'0 0.0
2017-Sep-14 20:29N 42°22' W 071°03'0 0.0
2017-Sep-14 19:47N 42°22' W 071°03'0 0.0
2017-Sep-14 19:23N 42°22' W 071°03'0 0.0
2017-Sep-14 18:59N 42°22' W 071°03'0 0.0
2017-Sep-14 18:29N 42°22' W 071°03'0 0.0
2017-Sep-14 17:11N 42°22' W 071°03'0 0.0
2017-Sep-14 16:41N 42°22' W 071°03'0 0.0
2017-Sep-14 15:47N 42°22' W 071°03'0 0.0
2017-Sep-14 15:23N 42°22' W 071°03'0 0.0
2017-Sep-14 13:17N 42°22' W 071°03'0 0.0
2017-Sep-14 12:53N 42°22' W 071°03'0 0.0
2017-Sep-14 12:17N 42°22' W 071°03'0 0.0
2017-Sep-14 11:53N 42°22' W 071°03'0 0.0
2017-Sep-14 11:17N 42°22' W 071°03'0 0.0
2017-Sep-14 10:47N 42°22' W 071°03'0 0.0
2017-Sep-14 10:11N 42°22' W 071°03'0 0.0
2017-Sep-14 09:53N 42°22' W 071°03'0 0.0
2017-Sep-14 09:29N 42°22' W 071°03'0 0.0
2017-Sep-14 08:53N 42°22' W 071°03'0 0.0
2017-Sep-14 08:29N 42°22' W 071°03'0 0.0
2017-Sep-14 07:47N 42°22' W 071°03'0 0.0
2017-Sep-14 07:29N 42°22' W 071°03'0 0.0
2017-Sep-14 06:59N 42°22' W 071°03'0 0.0
2017-Sep-14 06:23N 42°22' W 071°03'0 0.0
2017-Sep-14 05:59N 42°22' W 071°03'0 0.0
2017-Sep-14 05:29N 42°22' W 071°03'0 0.0
2017-Sep-14 04:59N 42°22' W 071°03'0 0.0
2017-Sep-14 04:29N 42°22' W 071°03'0 0.0
2017-Sep-14 03:59N 42°22' W 071°03'0 0.0
2017-Sep-14 03:23N 42°22' W 071°03'0 0.0
2017-Sep-14 02:59N 42°22' W 071°03'0 0.0
2017-Sep-14 02:23N 42°22' W 071°03'0 0.0
2017-Sep-14 01:59N 42°22' W 071°03'0 0.0
2017-Sep-14 01:29N 42°22' W 071°03'0 0.0
2017-Sep-14 00:59N 42°22' W 071°03'0 0.0
2017-Sep-14 00:29N 42°22' W 071°03'0 0.0
2017-Sep-13 23:59N 42°22' W 071°03'0 0.0
2017-Sep-13 23:29N 42°22' W 071°03'0 0.0
2017-Sep-13 22:59N 42°22' W 071°03'0 0.0
2017-Sep-13 22:29N 42°22' W 071°03'0 0.0
2017-Sep-13 21:59N 42°22' W 071°03'0 0.0
2017-Sep-13 21:29N 42°22' W 071°03'0 0.0
2017-Sep-13 20:59N 42°22' W 071°03'0 0.0
2017-Sep-13 20:29N 42°22' W 071°03'0 0.0
2017-Sep-13 19:59N 42°22' W 071°03'0 0.0
2017-Sep-13 19:26N 42°22' W 071°03'0 0.0
2017-Sep-13 18:53N 42°22' W 071°03'0 0.0
2017-Sep-13 18:29N 42°22' W 071°03'0 0.0
2017-Sep-13 17:59N 42°22' W 071°03'0 0.0
2017-Sep-13 17:29N 42°22' W 071°03'0 0.0
2017-Sep-13 16:53N 42°22' W 071°03'0 0.0
2017-Sep-13 15:59N 42°22' W 071°03'0 0.0
2017-Sep-13 15:23N 42°22' W 071°03'0 0.0
2017-Sep-13 14:59N 42°22' W 071°03'0 0.0
2017-Sep-13 14:29N 42°22' W 071°03'0 0.0
2017-Sep-13 13:59N 42°22' W 071°03'0 0.0
2017-Sep-13 13:23N 42°22' W 071°03'0 0.0
2017-Sep-13 12:59N 42°22' W 071°03'0 0.0
2017-Sep-13 12:29N 42°22' W 071°03'0 0.0
2017-Sep-13 11:59N 42°22' W 071°03'0 0.0
2017-Sep-13 11:29N 42°22' W 071°03'0 0.0
2017-Sep-13 10:59N 42°22' W 071°03'0 0.0
2017-Sep-13 10:29N 42°22' W 071°03'0 0.0
2017-Sep-13 09:59N 42°22' W 071°03'0 0.0
2017-Sep-13 09:29N 42°22' W 071°03'0 0.0
2017-Sep-13 08:59N 42°22' W 071°03'0 0.0
2017-Sep-13 08:23N 42°22' W 071°03'0 0.0
2017-Sep-13 07:59N 42°22' W 071°03'0 0.0
2017-Sep-13 07:29N 42°22' W 071°03'0 0.0
2017-Sep-13 06:59N 42°22' W 071°03'0 0.0
2017-Sep-13 06:29N 42°22' W 071°03'0 0.0
2017-Sep-13 05:59N 42°22' W 071°03'0 0.0
2017-Sep-13 05:29N 42°22' W 071°03'0 0.0
2017-Sep-13 04:56N 42°22' W 071°03'0 0.0
2017-Sep-13 04:29N 42°22' W 071°03'0 0.0
2017-Sep-13 03:59N 42°22' W 071°03'0 0.0
2017-Sep-13 03:23N 42°22' W 071°03'0 0.0
2017-Sep-13 02:59N 42°22' W 071°03'0 0.0
2017-Sep-13 02:26N 42°22' W 071°03'0 0.0
2017-Sep-13 01:59N 42°22' W 071°03'0 0.0
2017-Sep-13 01:26N 42°22' W 071°03'0 0.0
2017-Sep-13 00:59N 42°22' W 071°03'0 0.0
2017-Sep-13 00:23N 42°22' W 071°03'0 0.0
2017-Sep-12 23:47N 42°22' W 071°03'0 0.0
2017-Sep-12 23:11N 42°22' W 071°03'0 0.0
2017-Sep-12 22:59N 42°22' W 071°03'0 0.0
2017-Sep-12 22:29N 42°22' W 071°03'0 0.0
2017-Sep-12 21:59N 42°22' W 071°03'0 0.0
2017-Sep-12 21:29N 42°22' W 071°03'0 0.0
2017-Sep-12 20:59N 42°22' W 071°03'0 0.0
2017-Sep-12 20:23N 42°22' W 071°03'0 0.0
2017-Sep-12 19:47N 42°22' W 071°03'0 0.0
2017-Sep-12 19:23N 42°22' W 071°03'0 0.0
2017-Sep-12 18:53N 42°22' W 071°03'0 0.0
2017-Sep-12 18:23N 42°22' W 071°03'0 0.0
2017-Sep-12 14:14N 42°22' W 071°03'0 0.0
2017-Sep-12 13:47N 42°22' W 071°03'0 0.0
2017-Sep-12 13:29N 42°22' W 071°03'0 0.0
2017-Sep-12 12:59N 42°22' W 071°03'0 0.0
2017-Sep-12 12:20N 42°22' W 071°03'1 2.6
2017-Sep-12 12:00N 42°21' W 071°02'4 7.5
2017-Sep-12 11:30N 42°20' W 070°57'4 7.8
2017-Sep-12 11:00N 42°22' W 070°52'5 8.8
2017-Sep-12 10:28N 42°25' W 070°47'4 8.9
2017-Sep-12 10:00N 42°27' W 070°42'4 9.1
2017-Sep-12 09:30N 42°29' W 070°37'5 9.0
2017-Sep-12 09:00N 42°31' W 070°31'5 9.3
2017-Sep-12 08:30N 42°33' W 070°26'4 8.9
2017-Sep-12 08:00N 42°36' W 070°21'5 8.9
2017-Sep-12 07:29N 42°39' W 070°17'5 9.1
2017-Sep-12 06:59N 42°43' W 070°12'102 9.0
2017-Sep-11 19:35N 44°12' W 069°02'110.9
2017-Sep-11 19:30N 44°12' W 069°03'1 0.2
2017-Sep-11 14:57N 44°13' W 069°04'0 0.0
2017-Sep-11 12:42N 44°13' W 069°04'0 0.0
2017-Sep-11 12:29N 44°13' W 069°04'0 0.0
2017-Sep-10 19:48N 44°13' W 069°04'1 3.1
2017-Sep-10 19:25N 44°12' W 069°02'38 0.7
2017-Sep-08 16:58N 44°24' W 068°12'0 0.0
2017-Sep-08 16:28N 44°24' W 068°12'0 0.0
2017-Sep-08 15:58N 44°24' W 068°12'0 0.0
2017-Sep-08 15:28N 44°24' W 068°12'0 0.0
2017-Sep-08 14:58N 44°24' W 068°12'0 0.0
2017-Sep-08 14:28N 44°24' W 068°12'0 0.0
2017-Sep-08 13:55N 44°24' W 068°12'0 0.0
2017-Sep-08 13:28N 44°24' W 068°12'0 0.0
2017-Sep-08 12:58N 44°24' W 068°12'0 0.0
2017-Sep-08 12:28N 44°24' W 068°12'0 0.0
2017-Sep-08 11:58N 44°24' W 068°12'0 0.0
2017-Sep-08 11:28N 44°24' W 068°12'0 0.0
2017-Sep-08 10:58N 44°24' W 068°12'0 0.0
2017-Sep-08 10:28N 44°24' W 068°12'0 0.0
2017-Sep-08 09:58N 44°24' W 068°12'0 0.0
2017-Sep-08 09:28N 44°24' W 068°12'0 0.0
2017-Sep-08 08:58N 44°24' W 068°12'0 0.0
2017-Sep-08 08:28N 44°24' W 068°12'0 0.0
2017-Sep-08 07:58N 44°24' W 068°12'0 0.0
2017-Sep-08 07:28N 44°24' W 068°12'0 0.0
2017-Sep-08 06:58N 44°24' W 068°12'0 0.0
2017-Sep-08 06:28N 44°24' W 068°12'0 0.0
2017-Sep-08 05:58N 44°24' W 068°12'0 0.0
2017-Sep-08 05:28N 44°24' W 068°12'0 0.0
2017-Sep-08 04:58N 44°24' W 068°12'0 0.0
2017-Sep-08 04:28N 44°24' W 068°12'0 0.0
2017-Sep-08 03:58N 44°24' W 068°12'0 0.0
2017-Sep-08 03:28N 44°24' W 068°12'0 0.0
2017-Sep-08 02:58N 44°24' W 068°12'0 0.0
2017-Sep-08 02:28N 44°24' W 068°12'0 0.0
2017-Sep-08 01:58N 44°24' W 068°12'0 0.0
2017-Sep-08 01:28N 44°24' W 068°12'0 0.0
2017-Sep-08 00:58N 44°24' W 068°12'0 0.0
2017-Sep-08 00:28N 44°24' W 068°12'0 0.0
2017-Sep-07 23:58N 44°24' W 068°12'0 0.0
2017-Sep-07 23:28N 44°24' W 068°12'0 0.0
2017-Sep-07 22:58N 44°24' W 068°12'0 0.0
2017-Sep-07 22:28N 44°24' W 068°12'0 0.0
2017-Sep-07 21:58N 44°24' W 068°12'0 0.0
2017-Sep-07 21:28N 44°24' W 068°12'0 0.0
2017-Sep-07 20:58N 44°24' W 068°12'0 0.0
2017-Sep-07 20:28N 44°24' W 068°12'0 0.0
2017-Sep-07 19:58N 44°24' W 068°12'0 0.0
2017-Sep-07 19:28N 44°24' W 068°12'0 0.0
2017-Sep-07 18:58N 44°24' W 068°12'0 0.0
2017-Sep-07 18:28N 44°24' W 068°12'0 0.0
2017-Sep-07 17:58N 44°24' W 068°12'0 0.0
2017-Sep-07 17:28N 44°24' W 068°12'0 0.0
2017-Sep-07 16:58N 44°24' W 068°12'0 0.0
2017-Sep-07 16:28N 44°24' W 068°12'  
Track history (hours):
 
Tides and Currents Weather Stations Pressure Air Temp Water Temp Dewpoint Dewpoint Depression Visibility Wind Speed Wind Dir Waves Ship Positions

Capricho

Last reported at 2017-Sep-17 16:13 UTC. Time now 2017-Sep-20 22:07 UTC.
Position N 42°16' W 070°40'.

Length 24 m.

Type: Pleasure craft. MMSI: 367677830.

Date/timePositionNaut miles runAvg speedWind from/ knotsBaromVisibWave heightAir tempDewpointWater temp
2017-Sep-17 16:13N 42°16' W 070°40'7 9.1
2017-Sep-17 15:29N 42°19' W 070°48'4 8.0
2017-Sep-17 15:00N 42°19' W 070°53'3 6.0
2017-Sep-17 14:30N 42°20' W 070°57'4 7.5
2017-Sep-17 13:58N 42°21' W 071°02'0 0.7
2017-Sep-17 13:23N 42°22' W 071°03'0 0.0
2017-Sep-17 12:59N 42°22' W 071°03'0 0.0
2017-Sep-17 12:29N 42°22' W 071°03'0 0.0
2017-Sep-17 11:59N 42°22' W 071°03'0 0.0
2017-Sep-17 11:23N 42°22' W 071°03'0 0.0
2017-Sep-17 10:59N 42°22' W 071°03'0 0.0
2017-Sep-17 10:29N 42°22' W 071°03'0 0.0
2017-Sep-17 09:59N 42°22' W 071°03'0 0.0
2017-Sep-17 09:29N 42°22' W 071°03'0 0.0
2017-Sep-17 08:59N 42°22' W 071°03'0 0.0
2017-Sep-17 08:29N 42°22' W 071°03'0 0.0
2017-Sep-17 04:59N 42°22' W 071°03'0 0.0
2017-Sep-17 04:29N 42°22' W 071°03'0 0.0
2017-Sep-17 03:59N 42°22' W 071°03'0 0.0
2017-Sep-17 03:29N 42°22' W 071°03'0 0.0
2017-Sep-17 02:59N 42°22' W 071°03'0 0.0
2017-Sep-17 02:29N 42°22' W 071°03'0 0.0
2017-Sep-17 01:59N 42°22' W 071°03'0 0.0
2017-Sep-17 01:29N 42°22' W 071°03'0 0.0
2017-Sep-17 00:59N 42°22' W 071°03'0 0.0
2017-Sep-17 00:23N 42°22' W 071°03'0 0.0
2017-Sep-16 23:59N 42°22' W 071°03'0 0.0
2017-Sep-16 23:29N 42°22' W 071°03'0 0.0
2017-Sep-16 22:59N 42°22' W 071°03'0 0.0
2017-Sep-16 22:17N 42°22' W 071°03'0 0.0
2017-Sep-16 21:59N 42°22' W 071°03'0 0.0
2017-Sep-16 21:08N 42°22' W 071°03'0 0.0
2017-Sep-16 20:35N 42°22' W 071°03'0 0.0
2017-Sep-16 20:29N 42°22' W 071°03'0 0.0
2017-Sep-16 19:59N 42°22' W 071°03'0 0.0
2017-Sep-16 19:29N 42°22' W 071°03'0 0.0
2017-Sep-16 18:05N 42°22' W 071°03'0 0.0
2017-Sep-16 17:47N 42°22' W 071°03'0 0.0
2017-Sep-16 16:35N 42°22' W 071°03'0 0.0
2017-Sep-16 16:29N 42°22' W 071°03'0 0.0
2017-Sep-16 15:59N 42°22' W 071°03'0 0.0
2017-Sep-16 15:29N 42°22' W 071°03'0 0.0
2017-Sep-16 14:53N 42°22' W 071°03'0 0.0
2017-Sep-16 14:23N 42°22' W 071°03'0 0.0
2017-Sep-16 13:53N 42°22' W 071°03'0 0.0
2017-Sep-16 13:29N 42°22' W 071°03'0 0.0
2017-Sep-16 12:59N 42°22' W 071°03'0 0.0
2017-Sep-16 12:29N 42°22' W 071°03'0 0.0
2017-Sep-16 11:59N 42°22' W 071°03'0 0.0
2017-Sep-16 11:29N 42°22' W 071°03'0 0.0
2017-Sep-16 10:47N 42°22' W 071°03'0 0.0
2017-Sep-16 10:29N 42°22' W 071°03'0 0.0
2017-Sep-16 09:59N 42°22' W 071°03'0 0.0
2017-Sep-16 09:29N 42°22' W 071°03'0 0.0
2017-Sep-16 08:41N 42°22' W 071°03'0 0.0
2017-Sep-16 08:17N 42°22' W 071°03'0 0.0
2017-Sep-16 07:53N 42°22' W 071°03'0 0.0
2017-Sep-16 07:17N 42°22' W 071°03'0 0.0
2017-Sep-16 06:53N 42°22' W 071°03'0 0.0
2017-Sep-16 06:23N 42°22' W 071°03'0 0.0
2017-Sep-16 05:59N 42°22' W 071°03'0 0.0
2017-Sep-16 04:41N 42°22' W 071°03'0 0.0
2017-Sep-16 03:47N 42°22' W 071°03'0 0.0
2017-Sep-16 03:29N 42°22' W 071°03'0 0.0
2017-Sep-16 02:59N 42°22' W 071°03'0 0.0
2017-Sep-16 02:23N 42°22' W 071°03'0 0.0
2017-Sep-16 01:53N 42°22' W 071°03'0 0.0
2017-Sep-16 01:29N 42°22' W 071°03'0 0.0
2017-Sep-16 00:59N 42°22' W 071°03'0 0.0
2017-Sep-16 00:23N 42°22' W 071°03'0 0.0
2017-Sep-15 23:59N 42°22' W 071°03'0 0.0
2017-Sep-15 23:23N 42°22' W 071°03'0 0.0
2017-Sep-15 22:56N 42°22' W 071°03'0 0.0
2017-Sep-15 22:29N 42°22' W 071°03'0 0.0
2017-Sep-15 21:53N 42°22' W 071°03'0 0.0
2017-Sep-15 21:29N 42°22' W 071°03'0 0.0
2017-Sep-15 20:59N 42°22' W 071°03'0 0.0
2017-Sep-15 20:17N 42°22' W 071°03'0 0.0
2017-Sep-15 19:53N 42°22' W 071°03'0 0.0
2017-Sep-15 19:23N 42°22' W 071°03'0 0.0
2017-Sep-15 18:47N 42°22' W 071°03'0 0.0
2017-Sep-15 16:17N 42°22' W 071°03'0 0.0
2017-Sep-15 15:11N 42°22' W 071°03'0 0.0
2017-Sep-15 14:59N 42°22' W 071°03'0 0.0
2017-Sep-15 14:23N 42°22' W 071°03'0 0.0
2017-Sep-15 13:53N 42°22' W 071°03'0 0.0
2017-Sep-15 13:29N 42°22' W 071°03'0 0.0
2017-Sep-15 12:59N 42°22' W 071°03'0 0.0
2017-Sep-15 12:29N 42°22' W 071°03'0 0.0
2017-Sep-15 11:59N 42°22' W 071°03'0 0.0
2017-Sep-15 09:53N 42°22' W 071°03'0 0.0
2017-Sep-15 09:17N 42°22' W 071°03'0 0.0
2017-Sep-15 08:53N 42°22' W 071°03'0 0.0
2017-Sep-15 08:17N 42°22' W 071°03'0 0.0
2017-Sep-15 03:41N 42°22' W 071°03'0 0.0
2017-Sep-15 01:53N 42°22' W 071°03'0 0.0
2017-Sep-15 01:23N 42°22' W 071°03'0 0.0
2017-Sep-15 00:59N 42°22' W 071°03'0 0.0
2017-Sep-15 00:29N 42°22' W 071°03'0 0.0
2017-Sep-14 23:53N 42°22' W 071°03'0 0.0
2017-Sep-14 23:29N 42°22' W 071°03'0 0.0
2017-Sep-14 22:59N 42°22' W 071°03'0 0.0
2017-Sep-14 22:29N 42°22' W 071°03'0 0.0
2017-Sep-14 21:53N 42°22' W 071°03'0 0.0
2017-Sep-14 21:29N 42°22' W 071°03'0 0.0
2017-Sep-14 20:29N 42°22' W 071°03'0 0.0
2017-Sep-14 19:47N 42°22' W 071°03'0 0.0
2017-Sep-14 19:23N 42°22' W 071°03'0 0.0
2017-Sep-14 18:59N 42°22' W 071°03'0 0.0
2017-Sep-14 18:29N 42°22' W 071°03'0 0.0
2017-Sep-14 17:11N 42°22' W 071°03'0 0.0
2017-Sep-14 16:41N 42°22' W 071°03'0 0.0
2017-Sep-14 15:47N 42°22' W 071°03'0 0.0
2017-Sep-14 15:23N 42°22' W 071°03'0 0.0
2017-Sep-14 13:17N 42°22' W 071°03'0 0.0
2017-Sep-14 12:53N 42°22' W 071°03'0 0.0
2017-Sep-14 12:17N 42°22' W 071°03'0 0.0
2017-Sep-14 11:53N 42°22' W 071°03'0 0.0
2017-Sep-14 11:17N 42°22' W 071°03'0 0.0
2017-Sep-14 10:47N 42°22' W 071°03'0 0.0
2017-Sep-14 10:11N 42°22' W 071°03'0 0.0
2017-Sep-14 09:53N 42°22' W 071°03'0 0.0
2017-Sep-14 09:29N 42°22' W 071°03'0 0.0
2017-Sep-14 08:53N 42°22' W 071°03'0 0.0
2017-Sep-14 08:29N 42°22' W 071°03'0 0.0
2017-Sep-14 07:47N 42°22' W 071°03'0 0.0
2017-Sep-14 07:29N 42°22' W 071°03'0 0.0
2017-Sep-14 06:59N 42°22' W 071°03'0 0.0
2017-Sep-14 06:23N 42°22' W 071°03'0 0.0
2017-Sep-14 05:59N 42°22' W 071°03'0 0.0
2017-Sep-14 05:29N 42°22' W 071°03'0 0.0
2017-Sep-14 04:59N 42°22' W 071°03'0 0.0
2017-Sep-14 04:29N 42°22' W 071°03'0 0.0
2017-Sep-14 03:59N 42°22' W 071°03'0 0.0
2017-Sep-14 03:23N 42°22' W 071°03'0 0.0
2017-Sep-14 02:59N 42°22' W 071°03'0 0.0
2017-Sep-14 02:23N 42°22' W 071°03'0 0.0
2017-Sep-14 01:59N 42°22' W 071°03'0 0.0
2017-Sep-14 01:29N 42°22' W 071°03'0 0.0
2017-Sep-14 00:59N 42°22' W 071°03'0 0.0
2017-Sep-14 00:29N 42°22' W 071°03'0 0.0
2017-Sep-13 23:59N 42°22' W 071°03'0 0.0
2017-Sep-13 23:29N 42°22' W 071°03'0 0.0
2017-Sep-13 22:59N 42°22' W 071°03'0 0.0
2017-Sep-13 22:29N 42°22' W 071°03'0 0.0
2017-Sep-13 21:59N 42°22' W 071°03'0 0.0
2017-Sep-13 21:29N 42°22' W 071°03'0 0.0
2017-Sep-13 20:59N 42°22' W 071°03'0 0.0
2017-Sep-13 20:29N 42°22' W 071°03'0 0.0
2017-Sep-13 19:59N 42°22' W 071°03'0 0.0
2017-Sep-13 19:26N 42°22' W 071°03'0 0.0
2017-Sep-13 18:53N 42°22' W 071°03'0 0.0
2017-Sep-13 18:29N 42°22' W 071°03'0 0.0
2017-Sep-13 17:59N 42°22' W 071°03'0 0.0
2017-Sep-13 17:29N 42°22' W 071°03'0 0.0
2017-Sep-13 16:53N 42°22' W 071°03'0 0.0
2017-Sep-13 15:59N 42°22' W 071°03'0 0.0
2017-Sep-13 15:23N 42°22' W 071°03'0 0.0
2017-Sep-13 14:59N 42°22' W 071°03'0 0.0
2017-Sep-13 14:29N 42°22' W 071°03'0 0.0
2017-Sep-13 13:59N 42°22' W 071°03'0 0.0
2017-Sep-13 13:23N 42°22' W 071°03'0 0.0
2017-Sep-13 12:59N 42°22' W 071°03'0 0.0
2017-Sep-13 12:29N 42°22' W 071°03'0 0.0
2017-Sep-13 11:59N 42°22' W 071°03'0 0.0
2017-Sep-13 11:29N 42°22' W 071°03'0 0.0
2017-Sep-13 10:59N 42°22' W 071°03'0 0.0
2017-Sep-13 10:29N 42°22' W 071°03'0 0.0
2017-Sep-13 09:59N 42°22' W 071°03'0 0.0
2017-Sep-13 09:29N 42°22' W 071°03'0 0.0
2017-Sep-13 08:59N 42°22' W 071°03'0 0.0
2017-Sep-13 08:23N 42°22' W 071°03'0 0.0
2017-Sep-13 07:59N 42°22' W 071°03'0 0.0
2017-Sep-13 07:29N 42°22' W 071°03'0 0.0
2017-Sep-13 06:59N 42°22' W 071°03'0 0.0
2017-Sep-13 06:29N 42°22' W 071°03'0 0.0
2017-Sep-13 05:59N 42°22' W 071°03'0 0.0
2017-Sep-13 05:29N 42°22' W 071°03'0 0.0
2017-Sep-13 04:56N 42°22' W 071°03'0 0.0
2017-Sep-13 04:29N 42°22' W 071°03'0 0.0
2017-Sep-13 03:59N 42°22' W 071°03'0 0.0
2017-Sep-13 03:23N 42°22' W 071°03'0 0.0
2017-Sep-13 02:59N 42°22' W 071°03'0 0.0
2017-Sep-13 02:26N 42°22' W 071°03'0 0.0
2017-Sep-13 01:59N 42°22' W 071°03'0 0.0
2017-Sep-13 01:26N 42°22' W 071°03'0 0.0
2017-Sep-13 00:59N 42°22' W 071°03'0 0.0
2017-Sep-13 00:23N 42°22' W 071°03'0 0.0
2017-Sep-12 23:47N 42°22' W 071°03'0 0.0
2017-Sep-12 23:11N 42°22' W 071°03'0 0.0
2017-Sep-12 22:59N 42°22' W 071°03'0 0.0
2017-Sep-12 22:29N 42°22' W 071°03'0 0.0
2017-Sep-12 21:59N 42°22' W 071°03'0 0.0
2017-Sep-12 21:29N 42°22' W 071°03'0 0.0
2017-Sep-12 20:59N 42°22' W 071°03'0 0.0
2017-Sep-12 20:23N 42°22' W 071°03'0 0.0
2017-Sep-12 19:47N 42°22' W 071°03'0 0.0
2017-Sep-12 19:23N 42°22' W 071°03'0 0.0
2017-Sep-12 18:53N 42°22' W 071°03'0 0.0
2017-Sep-12 18:23N 42°22' W 071°03'0 0.0
2017-Sep-12 14:14N 42°22' W 071°03'0 0.0
2017-Sep-12 13:47N 42°22' W 071°03'0 0.0
2017-Sep-12 13:29N 42°22' W 071°03'0 0.0
2017-Sep-12 12:59N 42°22' W 071°03'0 0.0
2017-Sep-12 12:20N 42°22' W 071°03'1 2.6
2017-Sep-12 12:00N 42°21' W 071°02'4 7.5
2017-Sep-12 11:30N 42°20' W 070°57'4 7.8
2017-Sep-12 11:00N 42°22' W 070°52'5 8.8
2017-Sep-12 10:28N 42°25' W 070°47'4 8.9
2017-Sep-12 10:00N 42°27' W 070°42'4 9.1
2017-Sep-12 09:30N 42°29' W 070°37'5 9.0
2017-Sep-12 09:00N 42°31' W 070°31'5 9.3
2017-Sep-12 08:30N 42°33' W 070°26'4 8.9
2017-Sep-12 08:00N 42°36' W 070°21'5 8.9
2017-Sep-12 07:29N 42°39' W 070°17'5 9.1
2017-Sep-12 06:59N 42°43' W 070°12'102 9.0
2017-Sep-11 19:35N 44°12' W 069°02'110.9
2017-Sep-11 19:30N 44°12' W 069°03'1 0.2
2017-Sep-11 14:57N 44°13' W 069°04'0 0.0
2017-Sep-11 12:42N 44°13' W 069°04'0 0.0
2017-Sep-11 12:29N 44°13' W 069°04'0 0.0
2017-Sep-10 19:48N 44°13' W 069°04'1 3.1
2017-Sep-10 19:25N 44°12' W 069°02'38 0.7
2017-Sep-08 16:58N 44°24' W 068°12'0 0.0
2017-Sep-08 16:28N 44°24' W 068°12'0 0.0
2017-Sep-08 15:58N 44°24' W 068°12'0 0.0
2017-Sep-08 15:28N 44°24' W 068°12'0 0.0
2017-Sep-08 14:58N 44°24' W 068°12'0 0.0
2017-Sep-08 14:28N 44°24' W 068°12'0 0.0
2017-Sep-08 13:55N 44°24' W 068°12'0 0.0
2017-Sep-08 13:28N 44°24' W 068°12'0 0.0
2017-Sep-08 12:58N 44°24' W 068°12'0 0.0
2017-Sep-08 12:28N 44°24' W 068°12'0 0.0
2017-Sep-08 11:58N 44°24' W 068°12'0 0.0
2017-Sep-08 11:28N 44°24' W 068°12'0 0.0
2017-Sep-08 10:58N 44°24' W 068°12'0 0.0
2017-Sep-08 10:28N 44°24' W 068°12'0 0.0
2017-Sep-08 09:58N 44°24' W 068°12'0 0.0
2017-Sep-08 09:28N 44°24' W 068°12'0 0.0
2017-Sep-08 08:58N 44°24' W 068°12'0 0.0
2017-Sep-08 08:28N 44°24' W 068°12'0 0.0
2017-Sep-08 07:58N 44°24' W 068°12'0 0.0
2017-Sep-08 07:28N 44°24' W 068°12'0 0.0
2017-Sep-08 06:58N 44°24' W 068°12'0 0.0
2017-Sep-08 06:28N 44°24' W 068°12'0 0.0
2017-Sep-08 05:58N 44°24' W 068°12'0 0.0
2017-Sep-08 05:28N 44°24' W 068°12'0 0.0
2017-Sep-08 04:58N 44°24' W 068°12'0 0.0
2017-Sep-08 04:28N 44°24' W 068°12'0 0.0
2017-Sep-08 03:58N 44°24' W 068°12'0 0.0
2017-Sep-08 03:28N 44°24' W 068°12'0 0.0
2017-Sep-08 02:58N 44°24' W 068°12'0 0.0
2017-Sep-08 02:28N 44°24' W 068°12'0 0.0
2017-Sep-08 01:58N 44°24' W 068°12'0 0.0
2017-Sep-08 01:28N 44°24' W 068°12'0 0.0
2017-Sep-08 00:58N 44°24' W 068°12'0 0.0
2017-Sep-08 00:28N 44°24' W 068°12'0 0.0
2017-Sep-07 23:58N 44°24' W 068°12'0 0.0
2017-Sep-07 23:28N 44°24' W 068°12'0 0.0
2017-Sep-07 22:58N 44°24' W 068°12'0 0.0
2017-Sep-07 22:28N 44°24' W 068°12'0 0.0
2017-Sep-07 21:58N 44°24' W 068°12'0 0.0
2017-Sep-07 21:28N 44°24' W 068°12'0 0.0
2017-Sep-07 20:58N 44°24' W 068°12'0 0.0
2017-Sep-07 20:28N 44°24' W 068°12'0 0.0
2017-Sep-07 19:58N 44°24' W 068°12'0 0.0
2017-Sep-07 19:28N 44°24' W 068°12'0 0.0
2017-Sep-07 18:58N 44°24' W 068°12'0 0.0
2017-Sep-07 18:28N 44°24' W 068°12'0 0.0
2017-Sep-07 17:58N 44°24' W 068°12'0 0.0
2017-Sep-07 17:28N 44°24' W 068°12'0 0.0
2017-Sep-07 16:58N 44°24' W 068°12'0 0.0
2017-Sep-07 16:28N 44°24' W 068°12'  

Dump ship's entire track history